Time;durP1;ratioP1;P1;durP2;ratioP2;P2;SDS_P1;SDS_P2;PMS_P1;PMS_P2;Temp;Humidity;BMP_temperature;BMP_pressure;BME280_temperature;BME280_humidity;BME280_pressure;Samples;Min_cycle;Max_cycle;Signal;HPM_P1;HPM_P2
2023/09/25 00:00:51;;;;;;;0.77;0.77;;;7.10;99.90;;;;;;5058068;28;20055;-77
2023/09/25 00:03:17;;;;;;;3.75;1.80;;;7.10;99.90;;;;;;5057015;28;20051;-76
2023/09/25 00:05:45;;;;;;;0.77;0.77;;;7.10;99.90;;;;;;5059636;28;20052;-78
2023/09/25 00:08:11;;;;;;;1.63;1.52;;;7.20;99.90;;;;;;5053776;28;20024;-79
2023/09/25 00:10:37;;;;;;;1.77;0.90;;;7.10;99.90;;;;;;5072099;28;20040;-78
2023/09/25 00:13:03;;;;;;;1.50;1.00;;;7.10;99.90;;;;;;5064326;28;20020;-79
2023/09/25 00:15:29;;;;;;;0.57;0.57;;;7.00;99.90;;;;;;5068429;28;20028;-77
2023/09/25 00:17:55;;;;;;;0.90;0.90;;;6.90;99.90;;;;;;5055896;28;20422;-76
2023/09/25 00:20:23;;;;;;;1.95;1.25;;;6.90;99.90;;;;;;5057424;28;20036;-79
2023/09/25 00:22:49;;;;;;;1.02;0.93;;;6.80;99.90;;;;;;5056161;28;20025;-77
2023/09/25 00:25:15;;;;;;;1.42;1.02;;;6.80;99.90;;;;;;5057631;28;20024;-79
2023/09/25 00:27:40;;;;;;;0.90;0.80;;;6.80;99.90;;;;;;5059061;28;20107;-77
2023/09/25 00:30:08;;;;;;;1.85;0.98;;;6.80;99.90;;;;;;5056839;28;20029;-78
2023/09/25 00:32:34;;;;;;;1.15;0.95;;;6.80;99.90;;;;;;5056486;28;20020;-77
2023/09/25 00:35:01;;;;;;;3.63;0.93;;;6.70;99.90;;;;;;5055884;28;20038;-77
2023/09/25 00:37:27;;;;;;;1.25;0.80;;;6.70;99.90;;;;;;5058128;28;20039;-81
2023/09/25 00:39:53;;;;;;;1.17;0.90;;;6.70;99.90;;;;;;5069926;28;20111;-82
2023/09/25 00:42:18;;;;;;;0.95;0.82;;;6.70;99.90;;;;;;5063282;28;20135;-77
2023/09/25 00:44:44;;;;;;;1.05;1.05;;;6.70;99.90;;;;;;5056913;28;20087;-78
2023/09/25 00:47:10;;;;;;;1.40;1.30;;;6.70;99.90;;;;;;5079338;28;20029;-78
2023/09/25 00:49:36;;;;;;;0.90;0.90;;;6.80;99.90;;;;;;5060084;28;20016;-79
2023/09/25 00:52:03;;;;;;;0.80;0.80;;;6.80;99.90;;;;;;5078834;28;20442;-78
2023/09/25 00:54:31;;;;;;;0.77;0.77;;;6.80;99.90;;;;;;5056215;28;20025;-78
2023/09/25 00:56:58;;;;;;;1.33;0.90;;;6.90;99.90;;;;;;5058387;28;20020;-81
2023/09/25 00:59:25;;;;;;;1.45;1.13;;;6.90;99.90;;;;;;5064950;28;20024;-78
2023/09/25 01:01:51;;;;;;;0.82;0.82;;;6.90;99.90;;;;;;5057840;28;20031;-78
2023/09/25 01:04:17;;;;;;;1.10;0.98;;;7.00;99.90;;;;;;5059326;28;20016;-79
2023/09/25 01:06:45;;;;;;;1.10;1.00;;;6.90;99.90;;;;;;5079206;28;20044;-78
2023/09/25 01:09:12;;;;;;;4.30;1.23;;;6.80;99.90;;;;;;5061563;28;20127;-78
2023/09/25 01:11:42;;;;;;;3.08;1.25;;;6.60;99.90;;;;;;5055432;28;20330;-79
2023/09/25 01:14:08;;;;;;;;;;;6.60;99.90;;;;;;5074906;28;20027;-79
2023/09/25 01:16:35;;;;;;;1.42;1.10;;;6.60;99.90;;;;;;5074794;28;19948;-80
2023/09/25 01:19:01;;;;;;;4.63;1.00;;;6.60;99.90;;;;;;5057289;28;20543;-78
2023/09/25 01:21:28;;;;;;;3.55;1.35;;;6.60;99.90;;;;;;5061625;28;20055;-76
2023/09/25 01:23:54;;;;;;;1.58;1.40;;;6.60;99.90;;;;;;5075744;28;20028;-80
2023/09/25 01:26:20;;;;;;;3.70;1.10;;;6.70;99.90;;;;;;5085107;28;20554;-80
2023/09/25 01:28:47;;;;;;;1.52;1.10;;;6.70;99.90;;;;;;5068312;28;20024;-81
2023/09/25 01:31:13;;;;;;;4.00;1.00;;;8.50;99.90;;;;;;5074853;28;20020;-80
2023/09/25 01:33:38;;;;;;;2.03;1.63;;;6.60;99.90;;;;;;5068746;28;20047;-80
2023/09/25 01:36:04;;;;;;;3.90;1.17;;;6.60;99.90;;;;;;5088526;28;20030;-81
2023/09/25 01:38:30;;;;;;;1.00;1.00;;;6.60;99.90;;;;;;5074168;28;20029;-81
2023/09/25 01:40:55;;;;;;;2.45;1.25;;;6.60;99.90;;;;;;5074335;28;20054;-81
2023/09/25 01:43:23;;;;;;;1.90;1.00;;;6.60;99.90;;;;;;5049390;28;20150;-82
2023/09/25 01:45:49;;;;;;;4.18;1.55;;;6.60;99.90;;;;;;5092908;28;20048;-80
2023/09/25 01:48:15;;;;;;;3.00;1.55;;;6.60;99.90;;;;;;5072902;28;20377;-78
2023/09/25 01:50:43;;;;;;;2.05;1.55;;;6.60;99.90;;;;;;5074172;28;20024;-82
2023/09/25 01:53:09;;;;;;;1.95;1.10;;;6.50;99.90;;;;;;5055782;28;20036;-79
2023/09/25 01:55:39;;;;;;;0.82;0.70;;;6.40;99.90;;;;;;5074783;28;20020;-81
2023/09/25 01:58:08;;;;;;;1.38;1.27;;;6.40;99.90;;;;;;5071737;28;20028;-79
2023/09/25 02:00:34;;;;;;;1.58;1.48;;;6.50;99.90;;;;;;5072693;28;20035;-81
2023/09/25 02:03:00;;;;;;;1.38;1.20;;;6.50;99.90;;;;;;5076373;28;20027;-81
2023/09/25 02:05:26;;;;;;;1.13;1.02;;;6.50;99.90;;;;;;5070648;28;20052;-80
2023/09/25 02:07:52;;;;;;;1.23;1.13;;;6.40;99.90;;;;;;5090903;28;20092;-81
2023/09/25 02:10:18;;;;;;;7.00;2.72;;;6.40;99.90;;;;;;5074326;28;20032;-81
2023/09/25 02:12:43;;;;;;;5.25;1.13;;;6.30;99.90;;;;;;5078083;28;20025;-81
2023/09/25 02:15:09;;;;;;;1.50;1.40;;;6.30;99.90;;;;;;5080134;28;20031;-81
2023/09/25 02:17:37;;;;;;;3.95;1.65;;;6.20;99.90;;;;;;5077574;28;20021;-82
2023/09/25 02:20:22;;;;;;;2.05;1.10;;;6.20;99.90;;;;;;5073480;28;20029;-80
2023/09/25 02:22:52;;;;;;;1.10;1.10;;;6.10;99.90;;;;;;5078069;28;20049;-79
2023/09/25 02:25:18;;;;;;;1.13;0.90;;;6.10;99.90;;;;;;5082171;28;20012;-81
2023/09/25 02:27:47;;;;;;;1.00;0.88;;;6.00;99.90;;;;;;5076277;28;20019;-80
2023/09/25 02:30:14;;;;;;;2.30;1.02;;;5.30;99.90;;;;;;5081684;28;20012;-81
2023/09/25 02:32:41;;;;;;;0.90;0.90;;;5.70;99.90;;;;;;5083812;28;20043;-80
2023/09/25 02:35:07;;;;;;;1.60;1.42;;;5.60;99.90;;;;;;5081159;28;20017;-82
2023/09/25 02:37:33;;;;;;;0.95;0.82;;;5.60;99.90;;;;;;5075883;28;20035;-79
2023/09/25 02:39:59;;;;;;;1.30;1.20;;;5.60;99.90;;;;;;5074146;28;20449;-81
2023/09/25 02:42:25;;;;;;;2.30;1.35;;;5.70;99.90;;;;;;5073256;28;20086;-77
2023/09/25 02:44:51;;;;;;;1.77;1.38;;;5.90;99.90;;;;;;5076335;28;20025;-84
2023/09/25 02:47:17;;;;;;;1.38;1.27;;;5.80;99.90;;;;;;5076007;28;20076;-83
2023/09/25 02:49:43;;;;;;;2.20;1.90;;;5.80;99.90;;;;;;5080180;28;20020;-83
2023/09/25 02:52:08;;;;;;;1.50;0.85;;;5.70;99.90;;;;;;5080346;28;20037;-80
2023/09/25 02:54:34;;;;;;;1.23;1.13;;;5.70;99.90;;;;;;5079530;28;20031;-81
2023/09/25 02:57:00;;;;;;;1.20;1.10;;;5.60;99.90;;;;;;5079662;28;20082;-81
2023/09/25 02:59:36;;;;;;;2.58;1.48;;;5.60;99.90;;;;;;5080778;28;20024;-82
2023/09/25 03:02:35;;;;;;;1.80;1.70;;;5.60;99.90;;;;;;5082848;28;20025;-82
2023/09/25 03:05:05;;;;;;;1.27;1.23;;;5.80;99.90;;;;;;5081852;28;20024;-81
2023/09/25 03:07:31;;;;;;;1.45;1.35;;;5.60;99.90;;;;;;5087036;28;20119;-80
2023/09/25 03:10:22;;;;;;;1.38;1.25;;;5.10;99.90;;;;;;5082822;28;20032;-83
2023/09/25 03:12:48;;;;;;;1.30;1.20;;;5.60;99.90;;;;;;5223823;22;20036;-81
2023/09/25 03:15:13;;;;;;;1.40;1.30;;;5.70;99.90;;;;;;5061444;28;20013;-79
2023/09/25 03:17:39;;;;;;;1.58;1.40;;;5.70;99.90;;;;;;5077406;28;20041;-79
2023/09/25 03:20:14;;;;;;;1.58;1.48;;;5.90;99.90;;;;;;5094614;28;20021;-81
2023/09/25 03:22:44;;;;;;;2.53;1.77;;;5.80;99.90;;;;;;5082231;28;20081;-82
2023/09/25 03:25:11;;;;;;;3.70;1.35;;;5.90;99.90;;;;;;5097541;28;20028;-82
2023/09/25 03:27:37;;;;;;;1.25;1.15;;;5.90;99.90;;;;;;5272841;22;20024;-81
2023/09/25 03:30:05;;;;;;;1.48;1.38;;;6.00;99.90;;;;;;5077483;28;20035;-82
2023/09/25 03:32:32;;;;;;;0.98;0.98;;;5.90;99.90;;;;;;5078089;28;20107;-80
2023/09/25 03:34:58;;;;;;;1.98;0.70;;;6.00;99.90;;;;;;5067411;28;20027;-80
2023/09/25 03:37:23;;;;;;;1.67;1.25;;;6.00;99.90;;;;;;5069910;28;20457;-78
2023/09/25 03:39:49;;;;;;;0.80;0.80;;;6.00;99.90;;;;;;5076102;28;20154;-77
2023/09/25 03:42:15;;;;;;;2.67;1.73;;;5.90;99.90;;;;;;5058163;28;20123;-77
2023/09/25 03:44:40;;;;;;;1.42;1.20;;;5.60;99.90;;;;;;5088928;28;20040;-78
2023/09/25 03:47:06;;;;;;;3.67;1.42;;;5.60;99.90;;;;;;5089628;28;20493;-81
2023/09/25 03:49:31;;;;;;;2.05;1.55;;;5.70;99.90;;;;;;5068911;28;20020;-80
2023/09/25 03:51:57;;;;;;;1.73;1.63;;;5.70;99.90;;;;;;5089584;28;20056;-79
2023/09/25 03:54:23;;;;;;;3.88;1.42;;;5.80;99.90;;;;;;5061871;28;20131;-78
2023/09/25 03:56:48;;;;;;;1.95;1.85;;;6.00;99.90;;;;;;5075474;28;20082;-77
2023/09/25 03:59:14;;;;;;;4.90;1.83;;;5.80;99.90;;;;;;5058287;28;20016;-77
2023/09/25 04:01:39;;;;;;;2.40;2.20;;;5.90;99.90;;;;;;5078200;28;20037;-78
2023/09/25 04:04:08;;;;;;;1.25;1.15;;;5.70;99.90;;;;;;5057333;28;20033;-80
2023/09/25 04:06:34;;;;;;;1.27;1.27;;;5.70;99.90;;;;;;5063525;28;20040;-78
2023/09/25 04:08:59;;;;;;;1.33;1.20;;;5.70;99.90;;;;;;5075144;28;20031;-78
2023/09/25 04:11:25;;;;;;;2.05;1.40;;;5.70;99.90;;;;;;5056853;28;20025;-78
2023/09/25 04:13:51;;;;;;;2.47;1.40;;;5.70;99.90;;;;;;5056677;28;20499;-78
2023/09/25 04:16:17;;;;;;;1.08;1.08;;;5.70;99.90;;;;;;5056796;28;20119;-78
2023/09/25 04:18:43;;;;;;;1.65;1.55;;;5.60;99.90;;;;;;5056805;28;20048;-81
2023/09/25 04:21:14;;;;;;;2.13;1.70;;;5.50;99.90;;;;;;5081751;28;20039;-79
2023/09/25 04:23:41;;;;;;;1.30;1.27;;;5.40;99.90;;;;;;5062663;28;20025;-82
2023/09/25 04:26:06;;;;;;;2.08;1.20;;;5.40;99.90;;;;;;5075374;28;20103;-78
2023/09/25 04:28:34;;;;;;;1.55;1.38;;;5.30;99.90;;;;;;5056779;28;20136;-78
2023/09/25 04:31:04;;;;;;;1.17;1.08;;;5.30;99.90;;;;;;5057015;28;20016;-78
2023/09/25 04:33:32;;;;;;;1.88;1.70;;;5.60;99.90;;;;;;5057058;28;20024;-78
2023/09/25 04:35:58;;;;;;;1.35;1.25;;;5.40;99.90;;;;;;5056854;28;20016;-78
2023/09/25 04:38:28;;;;;;;1.50;1.40;;;5.30;99.90;;;;;;5056845;28;20081;-78
2023/09/25 04:40:54;;;;;;;1.73;1.50;;;5.20;99.90;;;;;;5056395;28;20071;-79
2023/09/25 04:43:21;;;;;;;4.15;2.10;;;5.30;99.90;;;;;;5056626;28;20032;-78
2023/09/25 04:45:47;;;;;;;3.25;2.22;;;5.10;99.90;;;;;;5057776;28;20021;-82
2023/09/25 04:48:13;;;;;;;3.50;2.15;;;5.10;99.90;;;;;;5058768;28;20077;-82
2023/09/25 04:50:40;;;;;;;7.72;1.92;;;5.20;99.90;;;;;;5057635;28;20020;-79
2023/09/25 04:53:09;;;;;;;2.75;1.70;;;5.20;99.90;;;;;;5057116;28;20400;-79
2023/09/25 04:55:36;;;;;;;1.65;1.55;;;5.20;99.90;;;;;;5074767;28;20380;-79
2023/09/25 04:58:02;;;;;;;7.78;1.92;;;5.20;99.90;;;;;;5056978;28;20020;-79
2023/09/25 05:00:28;;;;;;;2.85;1.85;;;5.20;99.90;;;;;;5056898;28;20039;-79
2023/09/25 05:02:55;;;;;;;2.13;1.65;;;5.30;99.90;;;;;;5056857;28;20024;-79
2023/09/25 05:05:22;;;;;;;1.50;1.40;;;5.20;99.90;;;;;;5074830;28;20028;-78
2023/09/25 05:07:52;;;;;;;4.13;2.38;;;5.10;99.90;;;;;;5074411;28;20024;-78
2023/09/25 05:10:23;;;;;;;1.20;1.20;;;5.00;99.90;;;;;;5074276;28;20029;-78
2023/09/25 05:12:49;;;;;;;1.20;1.20;;;4.90;99.90;;;;;;5056048;28;20017;-78
2023/09/25 05:15:16;;;;;;;1.40;1.30;;;4.90;99.90;;;;;;5055953;28;20035;-79
2023/09/25 05:17:43;;;;;;;4.43;1.88;;;4.80;99.90;;;;;;5055739;28;20017;-78
2023/09/25 05:20:18;;;;;;;2.15;1.98;;;4.80;99.90;;;;;;5056089;28;20099;-78
2023/09/25 05:22:45;;;;;;;1.33;1.30;;;4.80;99.90;;;;;;5056294;28;20443;-78
2023/09/25 05:25:12;;;;;;;3.33;1.10;;;4.80;99.90;;;;;;5056377;28;20114;-79
2023/09/25 05:27:39;;;;;;;2.28;1.45;;;5.00;99.90;;;;;;5056504;28;20025;-79
2023/09/25 05:30:10;;;;;;;1.67;1.40;;;5.00;99.90;;;;;;5076969;28;20024;-79
2023/09/25 05:32:41;;;;;;;2.05;1.60;;;5.00;99.90;;;;;;5059005;28;20358;-79
2023/09/25 05:35:08;;;;;;;1.27;1.23;;;4.90;99.90;;;;;;5059840;28;20027;-79
2023/09/25 05:37:34;;;;;;;1.80;1.70;;;5.00;99.90;;;;;;5058395;28;20058;-78
2023/09/25 05:40:10;;;;;;;3.10;1.98;;;5.10;99.90;;;;;;5056326;28;20025;-78
2023/09/25 05:42:42;;;;;;;2.25;1.73;;;5.10;99.90;;;;;;5075501;28;20047;-79
2023/09/25 05:45:08;;;;;;;1.52;1.42;;;5.20;99.90;;;;;;5056907;28;20071;-79
2023/09/25 05:47:34;;;;;;;9.93;2.13;;;5.20;99.90;;;;;;5075302;28;20024;-78
2023/09/25 05:50:00;;;;;;;2.28;2.05;;;5.20;99.90;;;;;;5056537;28;20020;-78
2023/09/25 05:52:26;;;;;;;4.00;1.90;;;5.30;99.90;;;;;;5056793;28;20028;-79
2023/09/25 05:54:52;;;;;;;2.13;2.03;;;5.30;99.90;;;;;;5056924;28;20032;-79
2023/09/25 05:57:18;;;;;;;2.10;1.60;;;5.40;99.90;;;;;;5059012;28;20024;-79
2023/09/25 05:59:44;;;;;;;2.65;1.83;;;5.40;99.90;;;;;;5060274;28;20021;-78
2023/09/25 06:02:09;;;;;;;1.38;1.38;;;5.50;99.90;;;;;;5060436;28;20491;-78
2023/09/25 06:04:36;;;;;;;1.30;1.20;;;5.50;99.90;;;;;;5060769;28;20025;-79
2023/09/25 06:07:03;;;;;;;1.83;1.23;;;5.70;99.90;;;;;;5060108;28;20027;-78
2023/09/25 06:09:28;;;;;;;1.75;1.65;;;5.60;99.90;;;;;;5059577;28;20071;-78
2023/09/25 06:11:54;;;;;;;2.00;1.67;;;5.60;99.90;;;;;;5059326;28;20455;-78
2023/09/25 06:14:21;;;;;;;2.05;1.73;;;5.60;99.90;;;;;;5059433;28;20020;-78
2023/09/25 06:16:48;;;;;;;1.45;1.30;;;5.60;99.90;;;;;;5059354;28;20028;-78
2023/09/25 06:19:14;;;;;;;1.73;1.63;;;5.80;99.90;;;;;;5059351;28;20158;-78
2023/09/25 06:21:40;;;;;;;1.20;1.20;;;5.80;99.90;;;;;;5059302;28;20123;-78
2023/09/25 06:24:09;;;;;;;2.17;1.90;;;5.80;99.90;;;;;;5059396;28;20016;-78
2023/09/25 06:26:41;;;;;;;1.98;1.67;;;5.90;99.90;;;;;;5059598;28;20035;-79
2023/09/25 06:29:11;;;;;;;1.90;1.63;;;6.00;99.90;;;;;;5061210;28;20037;-79
2023/09/25 06:31:37;;;;;;;5.22;2.05;;;6.10;99.90;;;;;;5059226;28;20427;-78
2023/09/25 06:34:04;;;;;;;11.13;1.80;;;6.30;99.90;;;;;;5059329;28;20035;-78
2023/09/25 06:36:31;;;;;;;3.25;1.92;;;6.50;99.90;;;;;;5059056;28;20538;-78
2023/09/25 06:38:57;;;;;;;2.55;1.85;;;6.70;99.90;;;;;;5059000;28;20033;-78
2023/09/25 06:41:23;;;;;;;3.33;2.28;;;6.70;99.90;;;;;;5058858;28;20480;-78
2023/09/25 06:43:48;;;;;;;2.15;1.90;;;6.80;99.90;;;;;;5058811;28;20016;-78
2023/09/25 06:46:15;;;;;;;3.58;2.03;;;6.90;99.90;;;;;;5058696;28;20026;-79
2023/09/25 06:48:41;;;;;;;2.67;1.70;;;7.10;99.90;;;;;;5059611;28;20168;-76
2023/09/25 06:56:17;;;;;;;1.85;1.75;;;7.60;99.90;;;;;;5909291;22;20041;-80
2023/09/25 06:58:43;;;;;;;5.07;2.50;;;7.80;99.90;;;;;;5075403;28;20017;-82
2023/09/25 07:01:09;;;;;;;2.30;2.05;;;7.90;99.90;;;;;;5060939;28;20021;-81
2023/09/25 07:03:34;;;;;;;1.73;1.63;;;8.00;99.90;;;;;;5192434;23;20024;-83
2023/09/25 07:13:44;;;;;;;2.40;2.20;;;8.60;99.90;;;;;;5094803;28;20048;-81
2023/09/25 07:16:12;;;;;;;2.10;1.90;;;8.60;99.90;;;;;;5079415;28;20044;-83
2023/09/25 07:18:41;;;;;;;2.25;2.15;;;8.70;99.90;;;;;;5074684;28;20024;-83
2023/09/25 07:21:10;;;;;;;1.85;1.55;;;9.00;99.90;;;;;;5175666;22;20053;-83
2023/09/25 07:26:17;;;;;;;2.88;2.53;;;9.10;99.90;;;;;;5414974;22;20063;-83
2023/09/25 07:29:19;;;;;;;4.07;2.00;;;9.20;99.90;;;;;;5058060;28;20033;-82
2023/09/25 07:45:57;;;;;;;3.90;2.25;;;9.90;99.90;;;;;;5034276;28;20086;-85
2023/09/25 07:48:23;;;;;;;1.42;1.33;;;10.00;99.90;;;;;;5034845;28;20021;-78
2023/09/25 07:50:55;;;;;;;2.75;2.25;;;10.10;99.90;;;;;;5019336;28;20030;-77
2023/09/25 07:53:21;;;;;;;2.10;1.88;;;10.30;99.90;;;;;;5015861;28;20512;-78
2023/09/25 07:55:46;;;;;;;5.13;1.60;;;10.50;99.90;;;;;;4998311;28;20099;-78
2023/09/25 07:58:12;;;;;;;2.50;2.25;;;10.60;99.90;;;;;;5015102;28;20094;-82
2023/09/25 08:01:07;;;;;;;1.63;1.38;;;10.60;99.90;;;;;;5019862;28;20049;-82
2023/09/25 08:03:54;;;;;;;3.67;1.55;;;9.60;99.90;;;;;;5023362;28;20038;-83
2023/09/25 08:11:45;;;;;;;17.00;1.77;;;11.00;99.90;;;;;;5446059;22;20084;-83
2023/09/25 08:14:11;;;;;;;2.15;1.30;;;11.00;99.90;;;;;;5030654;28;20026;-78
2023/09/25 08:16:38;;;;;;;6.55;2.17;;;10.00;99.90;;;;;;5035139;28;20040;-78
2023/09/25 08:19:04;;;;;;;1.55;1.45;;;11.10;99.90;;;;;;5017063;28;20071;-78
2023/09/25 08:21:30;;;;;;;2.90;1.90;;;11.30;99.90;;;;;;5018580;28;20038;-79
2023/09/25 08:23:56;;;;;;;1.65;1.52;;;11.30;99.90;;;;;;5023697;28;20036;-80
2023/09/25 08:26:23;;;;;;;6.95;1.40;;;11.40;99.90;;;;;;5024163;28;20112;-78
2023/09/25 08:28:50;;;;;;;3.05;1.80;;;11.50;99.90;;;;;;5023533;28;20470;-80
2023/09/25 08:31:15;;;;;;;2.90;1.40;;;11.60;99.90;;;;;;5023214;28;20500;-78
2023/09/25 08:33:41;;;;;;;1.05;1.02;;;11.80;99.90;;;;;;5042418;28;20041;-80
2023/09/25 08:36:10;;;;;;;5.68;2.05;;;12.00;99.90;;;;;;5033460;28;20029;-81
2023/09/25 08:38:36;;;;;;;1.42;1.30;;;12.30;99.90;;;;;;5034908;28;20029;-81
2023/09/25 08:41:02;;;;;;;1.70;1.60;;;13.00;99.90;;;;;;5031383;28;20038;-81
2023/09/25 08:43:28;;;;;;;1.13;1.02;;;13.60;99.90;;;;;;5038475;28;20033;-81
2023/09/25 08:45:56;;;;;;;4.28;1.10;;;14.10;99.90;;;;;;5035044;28;20026;-80
2023/09/25 08:48:22;;;;;;;4.68;2.58;;;14.00;99.90;;;;;;5051043;28;20029;-80
2023/09/25 08:50:50;;;;;;;1.77;1.23;;;13.70;99.90;;;;;;5040584;28;20031;-79
2023/09/25 08:53:16;;;;;;;5.55;1.10;;;13.40;99.90;;;;;;5041093;28;20030;-79
2023/09/25 08:56:06;;;;;;;1.70;1.30;;;13.20;99.90;;;;;;5041574;28;20037;-79
2023/09/25 09:01:18;;;;;;;4.03;1.70;;;13.10;99.90;;;;;;5057927;28;20060;-78
2023/09/25 09:03:52;;;;;;;1.35;1.25;;;13.20;99.90;;;;;;5058025;28;20551;-79
2023/09/25 09:13:24;;;;;;;1.27;0.90;;;13.30;99.90;;;;;;4993412;28;20057;-79
2023/09/25 09:16:25;;;;;;;3.83;1.45;;;13.40;99.90;;;;;;4978970;28;20058;-79
2023/09/25 09:19:12;;;;;;;3.00;2.10;;;13.40;99.90;;;;;;5015986;23;20033;-80
2023/09/25 09:21:44;;;;;;;2.45;1.42;;;13.60;99.90;;;;;;5041273;28;20052;-78
2023/09/25 09:24:36;;;;;;;2.53;1.57;;;13.60;99.90;;;;;;5030318;28;20025;-80
2023/09/25 09:27:07;;;;;;;1.10;1.02;;;13.70;99.90;;;;;;5039204;28;20276;-79
2023/09/25 09:29:37;;;;;;;2.67;1.30;;;13.80;99.90;;;;;;5040445;28;20029;-79
2023/09/25 09:32:04;;;;;;;0.80;0.80;;;13.90;99.90;;;;;;5057379;28;20029;-78
2023/09/25 09:34:30;;;;;;;1.17;0.80;;;14.10;99.90;;;;;;5041288;28;20034;-79
2023/09/25 09:36:56;;;;;;;3.67;1.88;;;14.10;99.90;;;;;;5041320;28;20081;-80
2023/09/25 09:39:25;;;;;;;3.22;1.55;;;14.20;99.90;;;;;;5041407;28;20081;-81
2023/09/25 09:41:53;;;;;;;0.88;0.80;;;14.20;99.90;;;;;;5058625;28;20010;-80
2023/09/25 09:44:19;;;;;;;2.03;1.20;;;14.30;99.90;;;;;;5058367;28;20010;-80
2023/09/25 09:46:50;;;;;;;4.88;1.52;;;14.30;99.90;;;;;;5041563;28;20025;-83
2023/09/25 09:49:23;;;;;;;9.23;1.30;;;14.40;99.90;;;;;;5041475;28;20013;-80
2023/09/25 09:51:50;;;;;;;1.63;1.30;;;14.50;99.90;;;;;;5039277;28;20026;-82
2023/09/25 09:54:18;;;;;;;0.90;0.90;;;14.70;99.90;;;;;;5038662;28;20006;-79
2023/09/25 09:57:27;;;;;;;1.30;1.05;;;14.80;99.90;;;;;;5057627;28;20029;-79
2023/09/25 09:59:54;;;;;;;3.70;1.90;;;14.90;99.90;;;;;;5040963;28;20037;-80
2023/09/25 10:02:56;;;;;;;1.48;1.38;;;15.00;99.90;;;;;;5039297;28;20033;-78
2023/09/25 10:05:22;;;;;;;2.15;1.23;;;15.20;99.90;;;;;;5040592;28;20052;-79
2023/09/25 10:08:03;;;;;;;2.85;1.33;;;15.30;99.90;;;;;;5073348;23;20043;-79
2023/09/25 10:10:29;;;;;;;1.05;0.95;;;15.50;99.90;;;;;;5017441;28;20038;-80
2023/09/25 10:12:56;;;;;;;1.65;1.55;;;15.50;99.90;;;;;;5018075;28;20023;-81
2023/09/25 10:15:27;;;;;;;1.77;1.67;;;15.50;99.90;;;;;;5017216;28;20058;-79
2023/09/25 10:17:54;;;;;;;3.05;1.35;;;15.50;99.90;;;;;;5017699;28;20010;-80
2023/09/25 10:20:38;;;;;;;3.60;1.35;;;15.50;99.90;;;;;;5015349;28;20108;-81
2023/09/25 10:23:09;;;;;;;2.20;0.98;;;15.70;99.90;;;;;;5010958;28;20057;-81
2023/09/25 10:25:53;;;;;;;1.45;1.33;;;15.80;99.90;;;;;;5002740;28;20035;-79
2023/09/25 10:28:41;;;;;;;2.65;1.30;;;15.90;99.90;;;;;;5013256;28;20015;-80
2023/09/25 10:31:29;;;;;;;1.30;1.02;;;16.00;99.90;;;;;;5016834;28;20039;-79
2023/09/25 10:33:59;;;;;;;2.78;1.40;;;16.20;99.90;;;;;;5013615;28;20026;-80
2023/09/25 10:36:42;;;;;;;8.18;1.70;;;16.30;99.90;;;;;;5017327;28;20039;-79
2023/09/25 10:39:09;;;;;;;1.83;1.30;;;16.30;99.90;;;;;;5017199;28;20010;-79
2023/09/25 10:41:36;;;;;;;1.30;1.17;;;16.30;99.90;;;;;;5013793;28;20038;-81
2023/09/25 10:44:03;;;;;;;1.92;0.93;;;16.50;99.90;;;;;;4996961;28;20497;-82
2023/09/25 10:46:51;;;;;;;0.63;0.60;;;16.50;99.90;;;;;;5001833;28;20109;-82
2023/09/25 10:49:37;;;;;;;1.98;1.10;;;16.60;99.90;;;;;;5015119;28;20018;-80
2023/09/25 10:52:03;;;;;;;7.25;0.80;;;16.70;99.90;;;;;;4996917;28;20134;-82
2023/09/25 10:54:30;;;;;;;1.65;1.10;;;16.70;99.90;;;;;;5015150;28;20024;-79
2023/09/25 10:56:58;;;;;;;1.20;1.10;;;16.80;99.90;;;;;;5020156;28;20023;-80
2023/09/25 10:59:24;;;;;;;1.27;1.05;;;16.90;99.90;;;;;;5019672;28;20010;-80
2023/09/25 11:01:51;;;;;;;0.88;0.88;;;17.00;99.90;;;;;;5018203;28;20018;-80
2023/09/25 11:04:17;;;;;;;1.02;0.98;;;17.00;99.90;;;;;;4994755;28;20041;-80
2023/09/25 11:06:43;;;;;;;1.42;0.80;;;17.10;99.90;;;;;;5008828;28;20022;-80
2023/09/25 11:09:17;;;;;;;0.65;0.60;;;17.10;99.90;;;;;;5017351;28;20030;-80
2023/09/25 11:11:44;;;;;;;1.40;0.90;;;17.30;99.90;;;;;;5017342;28;20107;-80
2023/09/25 11:14:10;;;;;;;5.60;1.33;;;17.40;99.90;;;;;;5015028;28;20054;-79
2023/09/25 11:16:36;;;;;;;1.20;1.10;;;17.40;99.90;;;;;;5014419;28;20019;-79
2023/09/25 11:19:17;;;;;;;2.90;0.70;;;17.50;99.90;;;;;;5019874;28;20026;-82
2023/09/25 11:21:46;;;;;;;0.95;0.90;;;17.50;99.90;;;;;;5015462;28;20034;-81
2023/09/25 11:24:13;;;;;;;;;;;17.60;99.90;;;;;;5020359;28;20015;-80
2023/09/25 11:26:44;;;;;;;3.88;1.42;;;17.70;99.90;;;;;;5004942;28;19944;-80
2023/09/25 11:29:11;;;;;;;2.60;0.77;;;17.80;99.90;;;;;;5011710;28;20022;-81
2023/09/25 11:31:37;;;;;;;0.93;0.90;;;17.90;99.90;;;;;;4997140;28;20451;-81
2023/09/25 11:34:06;;;;;;;1.45;1.25;;;18.00;99.90;;;;;;4997988;28;20033;-81
2023/09/25 11:36:52;;;;;;;2.25;0.82;;;18.20;99.90;;;;;;5018028;28;20117;-81
2023/09/25 11:39:18;;;;;;;3.92;1.05;;;18.10;99.90;;;;;;4999430;28;20125;-81
2023/09/25 11:41:44;;;;;;;2.75;1.40;;;18.30;99.90;;;;;;5013089;28;20034;-81
2023/09/25 11:44:10;;;;;;;2.83;1.13;;;18.40;99.90;;;;;;4994838;28;20031;-81
2023/09/25 11:46:35;;;;;;;3.25;1.08;;;18.50;99.20;;;;;;4994340;28;20594;-82
2023/09/25 11:49:01;;;;;;;4.32;1.17;;;18.60;98.30;;;;;;4997554;28;20045;-82
2023/09/25 11:51:27;;;;;;;1.92;0.98;;;18.50;97.40;;;;;;4998376;28;20030;-82
2023/09/25 11:53:52;;;;;;;0.90;0.82;;;18.50;97.90;;;;;;5005919;28;20091;-82
2023/09/25 11:56:18;;;;;;;4.07;1.50;;;18.60;98.00;;;;;;5008871;28;20026;-81
2023/09/25 11:58:44;;;;;;;1.55;1.20;;;18.80;96.60;;;;;;4996811;28;20434;-83
2023/09/25 12:01:10;;;;;;;0.95;0.82;;;19.20;96.30;;;;;;4995379;28;20026;-81
2023/09/25 12:03:38;;;;;;;1.77;0.68;;;19.60;96.30;;;;;;4994473;28;20027;-80
2023/09/25 12:06:08;;;;;;;1.33;0.75;;;20.70;93.20;;;;;;4994316;28;20029;-80
2023/09/25 12:08:33;;;;;;;;;;;22.40;91.30;;;;;;4994650;28;20108;-80
2023/09/25 12:10:59;;;;;;;0.80;0.50;;;23.80;85.10;;;;;;4995268;28;19905;-81
2023/09/25 12:13:25;;;;;;;1.75;1.20;;;24.50;78.90;;;;;;4995294;28;20037;-79
2023/09/25 12:15:51;;;;;;;2.15;0.88;;;25.20;75.90;;;;;;4993665;28;20390;-80
2023/09/25 12:18:17;;;;;;;0.60;0.60;;;25.80;71.40;;;;;;4994958;28;20522;-80
2023/09/25 12:20:43;;;;;;;1.67;0.77;;;26.40;68.60;;;;;;4995060;28;20427;-80
2023/09/25 12:23:09;;;;;;;2.97;1.02;;;26.50;67.70;;;;;;4995297;28;20064;-80
2023/09/25 12:25:35;;;;;;;0.77;0.63;;;27.20;66.80;;;;;;4993898;28;20498;-80
2023/09/25 12:28:02;;;;;;;1.63;0.80;;;28.00;62.20;;;;;;4994159;28;20026;-80
2023/09/25 12:30:28;;;;;;;6.00;1.10;;;27.90;61.40;;;;;;4993687;28;20029;-80
2023/09/25 12:32:53;;;;;;;2.25;0.90;;;29.20;59.80;;;;;;4994926;28;20026;-81
2023/09/25 12:35:20;;;;;;;1.60;0.50;;;29.70;58.00;;;;;;4993584;28;20030;-79
2023/09/25 12:37:47;;;;;;;2.35;0.85;;;29.50;56.30;;;;;;4994575;28;20114;-80
2023/09/25 12:40:17;;;;;;;0.73;0.60;;;29.30;56.50;;;;;;4993750;28;20026;-81
2023/09/25 12:42:46;;;;;;;0.93;0.70;;;29.70;56.60;;;;;;4995112;28;20022;-81
2023/09/25 12:45:12;;;;;;;4.15;0.80;;;29.80;56.40;;;;;;4993484;28;20082;-80
2023/09/25 12:47:39;;;;;;;0.95;0.60;;;30.00;54.90;;;;;;4993938;28;20107;-80
2023/09/25 12:50:05;;;;;;;0.70;0.70;;;29.20;56.00;;;;;;4994700;28;20024;-80
2023/09/25 12:52:31;;;;;;;1.27;0.93;;;28.70;56.20;;;;;;4993408;28;20117;-79
2023/09/25 12:54:57;;;;;;;0.98;0.88;;;27.70;56.40;;;;;;4993233;28;20134;-80
2023/09/25 12:57:24;;;;;;;1.63;1.20;;;28.50;57.40;;;;;;4994671;28;20089;-81
2023/09/25 12:59:50;;;;;;;2.92;0.98;;;28.40;56.40;;;;;;4993319;28;20023;-82
2023/09/25 13:02:16;;;;;;;3.78;1.73;;;28.20;56.70;;;;;;4993404;28;20045;-80
2023/09/25 13:04:42;;;;;;;2.00;0.80;;;28.80;56.30;;;;;;4993134;28;20033;-80
2023/09/25 13:07:08;;;;;;;0.95;0.80;;;29.70;54.70;;;;;;4993810;28;20135;-80
2023/09/25 13:09:33;;;;;;;0.93;0.50;;;30.20;53.50;;;;;;4994116;28;20042;-81
2023/09/25 13:12:00;;;;;;;1.95;0.80;;;30.20;52.90;;;;;;4992901;28;20117;-80
2023/09/25 13:14:25;;;;;;;0.43;0.40;;;28.90;53.60;;;;;;4992718;28;20466;-80
2023/09/25 13:16:51;;;;;;;0.65;0.65;;;28.70;55.70;;;;;;4992615;28;20054;-79
2023/09/25 13:19:17;;;;;;;0.60;0.60;;;28.70;54.00;;;;;;4992741;28;20027;-79
2023/09/25 13:21:42;;;;;;;4.82;0.88;;;27.80;54.90;;;;;;4993714;28;20040;-79
2023/09/25 13:24:09;;;;;;;0.88;0.50;;;28.90;54.60;;;;;;4992775;28;20030;-79
2023/09/25 13:26:34;;;;;;;0.90;0.80;;;29.90;53.80;;;;;;4992459;28;20425;-77
2023/09/25 13:29:00;;;;;;;3.22;0.90;;;30.70;53.60;;;;;;4993726;28;20046;-75
2023/09/25 13:31:26;;;;;;;0.40;0.40;;;32.30;52.70;;;;;;4993777;28;20072;-72
2023/09/25 13:33:51;;;;;;;0.85;0.80;;;33.30;50.80;;;;;;4993551;28;20026;-72
2023/09/25 13:36:17;;;;;;;0.57;0.55;;;33.80;49.10;;;;;;4993824;28;20042;-81
2023/09/25 13:38:45;;;;;;;1.58;0.95;;;33.90;49.40;;;;;;4992576;28;20072;-72
2023/09/25 13:41:10;;;;;;;0.60;0.60;;;33.40;48.40;;;;;;4993917;28;20404;-72
2023/09/25 13:43:38;;;;;;;2.00;0.60;;;33.20;48.30;;;;;;4993487;28;20027;-73